createdAt,value
2018-05-31T00:01:57.270Z,22.04
2018-05-31T00:06:54.276Z,22.10
2018-05-31T00:11:50.329Z,22.26
2018-05-31T00:16:47.898Z,22.06
2018-05-31T00:21:43.544Z,21.87
2018-05-31T00:26:39.596Z,21.92
2018-05-31T00:31:35.622Z,21.80
2018-05-31T00:36:31.733Z,21.92
2018-05-31T00:41:27.806Z,21.76
2018-05-31T00:46:23.815Z,21.79
2018-05-31T00:51:19.844Z,21.61
2018-05-31T00:56:16.783Z,21.55
2018-05-31T01:01:13.348Z,21.51
2018-05-31T01:06:09.612Z,21.55
2018-05-31T01:11:05.877Z,21.54
2018-05-31T01:16:02.771Z,21.64
2018-05-31T01:20:58.437Z,21.62
2018-05-31T01:25:54.634Z,21.76
2018-05-31T01:30:51.510Z,21.80
2018-05-31T01:35:47.376Z,21.62
2018-05-31T01:40:43.414Z,21.61
2018-05-31T01:45:40.498Z,21.66
2018-05-31T01:50:36.081Z,21.54
2018-05-31T01:55:32.973Z,21.43
2018-05-31T02:00:28.667Z,21.30
2018-05-31T02:05:24.613Z,21.24
2018-05-31T02:10:20.321Z,21.29
2018-05-31T02:15:17.130Z,20.99
2018-05-31T02:20:12.707Z,20.88
2018-05-31T02:25:09.903Z,20.72
2018-05-31T02:30:05.374Z,20.67
2018-05-31T02:35:01.315Z,20.66
2018-05-31T02:39:57.218Z,20.99
2018-05-31T02:44:53.326Z,20.90
2018-05-31T02:49:50.338Z,20.80
2018-05-31T02:54:45.940Z,20.70
2018-05-31T02:59:41.751Z,20.82
2018-05-31T03:04:38.108Z,20.72
2018-05-31T03:09:35.156Z,20.67
2018-05-31T03:14:30.845Z,20.82
2018-05-31T03:19:27.157Z,20.96
2018-05-31T03:24:23.399Z,20.78
2018-05-31T03:29:19.797Z,20.72
2018-05-31T03:34:15.794Z,20.67
2018-05-31T03:39:11.519Z,20.78
2018-05-31T03:44:07.600Z,20.72
2018-05-31T03:49:04.997Z,20.84
2018-05-31T03:54:01.357Z,20.84
2018-05-31T03:58:58.166Z,20.81
2018-05-31T04:03:54.379Z,20.84
2018-05-31T04:08:50.666Z,20.87
2018-05-31T04:13:46.954Z,21.00
2018-05-31T04:18:43.806Z,21.30
2018-05-31T04:23:40.881Z,21.22
2018-05-31T04:28:37.537Z,21.50
2018-05-31T04:33:34.367Z,22.00
2018-05-31T04:38:31.255Z,22.26
2018-05-31T04:43:28.267Z,22.55
2018-05-31T04:48:24.868Z,22.76
2018-05-31T04:53:21.027Z,22.66
2018-05-31T04:58:17.036Z,22.57
2018-05-31T05:03:13.592Z,23.03
2018-05-31T05:08:10.135Z,23.18
2018-05-31T05:13:06.635Z,23.55
2018-05-31T05:18:03.866Z,24.13
2018-05-31T05:23:00.557Z,24.51
2018-05-31T05:27:56.848Z,24.76
2018-05-31T05:32:53.129Z,24.65
2018-05-31T05:37:51.029Z,25.43
2018-05-31T05:42:47.402Z,25.36
2018-05-31T05:47:43.603Z,25.33
2018-05-31T05:52:40.114Z,25.38
2018-05-31T05:57:35.755Z,25.88
2018-05-31T06:02:32.457Z,25.66
2018-05-31T06:07:28.920Z,25.84
2018-05-31T06:12:24.497Z,25.75
2018-05-31T06:17:21.517Z,25.47
2018-05-31T06:22:17.217Z,25.66
2018-05-31T06:27:13.213Z,25.50
2018-05-31T06:32:09.323Z,25.46
2018-05-31T06:37:05.403Z,25.59
2018-05-31T06:42:01.743Z,25.85
2018-05-31T06:46:58.833Z,25.88
2018-05-31T06:51:55.816Z,26.02
2018-05-31T06:56:52.467Z,26.18
2018-05-31T07:01:49.461Z,26.06
2018-05-31T07:06:45.340Z,26.07
2018-05-31T07:11:42.542Z,26.09
2018-05-31T07:16:38.090Z,26.06
2018-05-31T07:21:35.489Z,25.80
2018-05-31T07:26:32.237Z,25.73
2018-05-31T07:31:28.310Z,26.06
2018-05-31T07:36:24.457Z,26.38
2018-05-31T07:41:20.668Z,26.62
2018-05-31T07:46:17.374Z,27.44
2018-05-31T07:51:16.207Z,28.75
2018-05-31T07:56:15.699Z,30.23
2018-05-31T08:01:13.607Z,30.44
2018-05-31T08:06:09.621Z,29.71
2018-05-31T08:11:05.432Z,29.82
2018-05-31T08:16:02.859Z,30.88
2018-05-31T08:21:00.170Z,32.03
2018-05-31T08:25:57.541Z,32.87
2018-05-31T08:30:55.966Z,33.98
2018-05-31T08:35:53.512Z,34.92
2018-05-31T08:40:50.419Z,35.36
2018-05-31T08:45:47.404Z,33.86
2018-05-31T08:50:43.691Z,32.56
2018-05-31T08:55:40.074Z,33.02
2018-05-31T09:00:36.298Z,33.84
2018-05-31T09:05:32.785Z,34.99
2018-05-31T09:10:29.683Z,35.30
2018-05-31T09:15:26.442Z,35.67
2018-05-31T09:20:22.816Z,35.70
2018-05-31T09:25:18.950Z,35.66
2018-05-31T09:30:14.449Z,34.61
2018-05-31T09:35:11.110Z,35.27
2018-05-31T09:40:09.046Z,35.49
2018-05-31T09:45:05.130Z,34.62
2018-05-31T09:50:01.090Z,32.53
2018-05-31T09:54:54.886Z,32.56
2018-05-31T09:59:51.968Z,32.23
2018-05-31T10:04:46.933Z,31.55
2018-05-31T10:09:43.953Z,32.90
2018-05-31T10:14:41.516Z,32.31
2018-05-31T10:19:39.282Z,34.02
2018-05-31T10:24:37.453Z,34.74
2018-05-31T10:29:35.504Z,35.89
2018-05-31T10:34:32.550Z,36.43
2018-05-31T10:39:28.267Z,35.68
2018-05-31T10:44:24.047Z,35.48
2018-05-31T10:49:20.434Z,33.07
2018-05-31T10:54:15.847Z,32.63
2018-05-31T10:59:10.566Z,32.16
2018-05-31T11:04:06.648Z,31.28
2018-05-31T11:09:01.267Z,30.66
2018-05-31T11:13:58.147Z,31.70
2018-05-31T11:18:57.953Z,32.86
2018-05-31T11:23:57.301Z,33.47
2018-05-31T11:28:54.672Z,34.03
2018-05-31T11:33:46.754Z,30.63
2018-05-31T11:38:40.485Z,29.38
2018-05-31T11:43:34.680Z,29.02
2018-05-31T11:48:29.535Z,28.97
2018-05-31T11:53:25.885Z,29.17
2018-05-31T11:58:23.614Z,29.69
2018-05-31T12:03:19.964Z,29.07
2018-05-31T12:08:15.347Z,28.51
2018-05-31T12:13:11.147Z,28.69
2018-05-31T12:18:07.243Z,29.12
2018-05-31T12:23:04.229Z,29.14
2018-05-31T12:28:02.852Z,31.00
2018-05-31T12:32:59.752Z,31.36
2018-05-31T12:37:54.834Z,30.77
2018-05-31T12:42:51.490Z,31.24
2018-05-31T12:47:50.069Z,31.99
2018-05-31T12:52:47.886Z,33.22
2018-05-31T12:57:45.941Z,31.99
2018-05-31T13:02:41.981Z,33.20
2018-05-31T13:07:39.635Z,33.87
2018-05-31T13:12:35.685Z,33.05
2018-05-31T13:17:31.986Z,32.41
2018-05-31T13:22:28.618Z,32.45
2018-05-31T13:27:25.888Z,32.01
2018-05-31T13:32:26.038Z,31.78
2018-05-31T13:37:20.690Z,31.43
2018-05-31T13:42:16.431Z,31.21
2018-05-31T13:47:12.805Z,31.18
2018-05-31T13:52:09.201Z,31.21
2018-05-31T13:57:05.384Z,31.21
2018-05-31T14:02:01.187Z,30.96
2018-05-31T14:06:57.526Z,30.73
2018-05-31T14:11:53.589Z,30.63
2018-05-31T14:16:49.750Z,30.69
2018-05-31T14:21:46.683Z,30.50
2018-05-31T14:26:42.284Z,30.28
2018-05-31T14:31:39.088Z,29.56
2018-05-31T14:36:34.409Z,29.51
2018-05-31T14:41:30.464Z,29.44
2018-05-31T14:46:26.526Z,29.17
2018-05-31T14:51:23.118Z,28.23
2018-05-31T14:56:18.126Z,27.25
2018-05-31T15:01:13.532Z,26.74
2018-05-31T15:06:09.234Z,26.59
2018-05-31T15:11:04.870Z,26.10
2018-05-31T15:16:00.124Z,25.10
2018-05-31T15:20:55.777Z,24.33
2018-05-31T15:25:51.297Z,24.38
2018-05-31T15:30:47.233Z,24.05
2018-05-31T15:35:43.283Z,24.02
2018-05-31T15:40:39.137Z,24.10
2018-05-31T15:45:35.718Z,24.05
2018-05-31T15:50:31.993Z,23.80
2018-05-31T15:55:27.946Z,23.71
2018-05-31T16:00:24.038Z,23.63
2018-05-31T16:05:19.989Z,23.91
2018-05-31T16:10:16.129Z,23.87
2018-05-31T16:15:13.587Z,23.81
2018-05-31T16:20:09.300Z,23.92
2018-05-31T16:25:06.326Z,23.80
2018-05-31T16:30:02.224Z,23.98
2018-05-31T16:34:59.215Z,24.08
2018-05-31T16:39:55.060Z,24.33
2018-05-31T16:44:51.093Z,24.51
2018-05-31T16:49:47.416Z,24.63
2018-05-31T16:54:43.458Z,24.33
2018-05-31T16:59:40.267Z,24.20
2018-05-31T17:04:36.686Z,23.98
2018-05-31T17:09:32.504Z,24.06
2018-05-31T17:14:28.292Z,24.05
2018-05-31T17:19:24.257Z,24.03
2018-05-31T17:24:20.037Z,23.92
2018-05-31T17:29:15.831Z,23.68
2018-05-31T17:34:12.056Z,23.31
2018-05-31T17:39:09.166Z,23.12
2018-05-31T17:44:04.842Z,23.17
2018-05-31T17:49:00.667Z,22.53
2018-05-31T17:53:56.510Z,22.39
2018-05-31T17:58:52.177Z,22.38
2018-05-31T18:03:48.510Z,22.47
2018-05-31T18:08:44.202Z,22.48
2018-05-31T18:13:39.960Z,22.35
2018-05-31T18:18:36.298Z,22.35
2018-05-31T18:23:33.131Z,22.18
2018-05-31T18:28:28.527Z,22.23
2018-05-31T18:33:24.431Z,22.23
2018-05-31T18:38:20.240Z,22.29
2018-05-31T18:43:17.348Z,22.23
2018-05-31T18:48:12.943Z,22.18
2018-05-31T18:53:08.909Z,22.30
2018-05-31T18:58:05.472Z,22.28
2018-05-31T19:03:01.599Z,22.26
2018-05-31T19:07:58.767Z,22.39
2018-05-31T19:12:54.530Z,22.22
2018-05-31T19:17:50.482Z,21.98
2018-05-31T19:22:46.510Z,21.83
2018-05-31T19:27:42.530Z,21.75
2018-05-31T19:32:38.377Z,22.15
2018-05-31T19:37:34.287Z,22.10
2018-05-31T19:42:30.220Z,22.06
2018-05-31T19:47:26.296Z,21.89
2018-05-31T19:52:22.728Z,21.99
2018-05-31T19:57:18.672Z,21.82
2018-05-31T20:02:14.561Z,21.70
2018-05-31T20:07:10.469Z,21.62
2018-05-31T20:12:06.828Z,21.69
2018-05-31T20:17:02.867Z,21.64
2018-05-31T20:21:58.931Z,21.60
2018-05-31T20:26:54.502Z,21.51
2018-05-31T20:31:50.371Z,21.35
2018-05-31T20:36:46.251Z,21.27
2018-05-31T20:41:42.130Z,21.39
2018-05-31T20:46:38.119Z,21.42
2018-05-31T20:51:34.063Z,21.55
2018-05-31T20:56:29.953Z,21.67
2018-05-31T21:01:25.946Z,21.48
2018-05-31T21:06:21.853Z,21.55
2018-05-31T21:11:17.650Z,21.82
2018-05-31T21:16:13.671Z,21.67
2018-05-31T21:21:09.505Z,21.15
2018-05-31T21:26:05.295Z,21.29
2018-05-31T21:31:01.097Z,21.21
2018-05-31T21:35:56.914Z,21.39
2018-05-31T21:40:52.823Z,21.24
2018-05-31T21:45:49.689Z,21.18
2018-05-31T21:50:46.207Z,21.18
2018-05-31T21:55:41.799Z,20.95
2018-05-31T22:00:38.138Z,20.99
2018-05-31T22:05:34.015Z,21.06
2018-05-31T22:10:29.963Z,21.09
2018-05-31T22:15:26.003Z,21.11
2018-05-31T22:20:22.031Z,20.99
2018-05-31T22:25:17.963Z,20.80
2018-05-31T22:30:13.609Z,20.85
2018-05-31T22:35:10.407Z,20.78
2018-05-31T22:40:06.928Z,20.87
2018-05-31T22:45:02.779Z,20.78
2018-05-31T22:49:58.772Z,20.69
2018-05-31T22:54:55.013Z,20.51
2018-05-31T22:59:50.835Z,20.52
2018-05-31T23:04:46.427Z,20.37
2018-05-31T23:09:42.301Z,20.32
2018-05-31T23:14:38.161Z,20.32
2018-05-31T23:19:33.892Z,20.29
2018-05-31T23:24:29.748Z,20.32
2018-05-31T23:29:26.611Z,20.36
2018-05-31T23:34:22.009Z,20.28
2018-05-31T23:39:17.812Z,20.25
2018-05-31T23:44:13.731Z,20.16
2018-05-31T23:49:09.569Z,20.16
2018-05-31T23:54:05.372Z,20.26
2018-05-31T23:59:02.726Z,19.86
